createdAt,value
2023-02-26T00:05:51.844Z,2.00
2023-02-26T00:11:17.111Z,1.70
2023-02-26T00:16:42.137Z,1.50
2023-02-26T00:22:07.479Z,1.70
2023-02-26T00:27:31.972Z,2.30
2023-02-26T00:32:56.661Z,1.30
2023-02-26T00:38:20.673Z,1.80
2023-02-26T00:43:45.452Z,1.30
2023-02-26T00:49:28.557Z,1.60
2023-02-26T00:54:53.540Z,1.50
2023-02-26T01:00:18.621Z,1.30
2023-02-26T01:05:42.971Z,1.40
2023-02-26T01:11:07.292Z,1.70
2023-02-26T01:16:38.126Z,1.70
2023-02-26T01:22:34.429Z,1.60
2023-02-26T01:27:59.187Z,1.20
2023-02-26T01:33:39.886Z,1.60
2023-02-26T01:39:25.878Z,1.10
2023-02-26T01:45:21.713Z,1.00
2023-02-26T01:50:45.761Z,1.30
2023-02-26T01:56:20.249Z,1.90
2023-02-26T02:01:44.987Z,1.30
2023-02-26T02:07:10.004Z,1.60
2023-02-26T02:12:51.088Z,1.60
2023-02-26T02:24:06.918Z,1.40
2023-02-26T02:29:52.175Z,1.20
2023-02-26T02:35:27.169Z,1.30
2023-02-26T02:40:59.109Z,1.50
2023-02-26T02:46:29.222Z,1.50
2023-02-26T02:52:03.730Z,0.90
2023-02-26T02:57:37.560Z,0.80
2023-02-26T03:03:13.977Z,1.30
2023-02-26T03:08:42.681Z,1.30
2023-02-26T03:14:10.514Z,1.00
2023-02-26T03:19:44.942Z,1.00
2023-02-26T03:25:22.713Z,0.90
2023-02-26T03:31:04.782Z,0.90
2023-02-26T03:36:54.726Z,1.20
2023-02-26T03:42:44.891Z,1.20
2023-02-26T03:48:14.422Z,1.10
2023-02-26T03:54:03.367Z,1.00
2023-02-26T03:59:30.332Z,1.80
2023-02-26T04:05:21.201Z,1.00
2023-02-26T04:10:53.431Z,0.90
2023-02-26T04:16:19.233Z,1.10
2023-02-26T04:21:44.233Z,1.00
2023-02-26T04:27:08.652Z,0.90
2023-02-26T04:32:33.590Z,0.90
2023-02-26T04:37:58.159Z,0.90
2023-02-26T04:43:22.586Z,1.00
2023-02-26T04:54:22.575Z,1.10
2023-02-26T04:59:46.845Z,1.20
2023-02-26T05:05:10.769Z,2.20
2023-02-26T05:10:35.008Z,1.10
2023-02-26T05:15:58.900Z,1.00
2023-02-26T05:21:26.110Z,1.40
2023-02-26T05:26:51.067Z,1.60
2023-02-26T05:32:15.325Z,1.20
2023-02-26T05:37:40.918Z,1.20
2023-02-26T05:43:05.655Z,1.10
2023-02-26T05:48:30.114Z,0.70
2023-02-26T05:53:55.141Z,0.90
2023-02-26T05:59:19.933Z,1.20
2023-02-26T06:04:44.377Z,1.20
2023-02-26T06:10:09.038Z,1.00
2023-02-26T06:15:33.698Z,1.10
2023-02-26T06:20:57.894Z,1.20
2023-02-26T06:26:23.881Z,1.10
2023-02-26T06:31:48.953Z,1.10
2023-02-26T06:37:13.234Z,1.80
2023-02-26T06:42:37.914Z,1.30
2023-02-26T06:48:02.488Z,1.50
2023-02-26T06:53:26.887Z,1.30
2023-02-26T06:58:52.477Z,1.90
2023-02-26T07:04:19.762Z,2.30
2023-02-26T07:09:46.099Z,1.40
2023-02-26T07:15:11.352Z,1.40
2023-02-26T07:20:35.501Z,1.20
2023-02-26T07:25:59.719Z,2.70
2023-02-26T07:31:25.264Z,1.30
2023-02-26T07:36:50.821Z,1.00
2023-02-26T07:42:15.480Z,1.70
2023-02-26T07:47:39.941Z,1.70
2023-02-26T07:53:03.873Z,1.00
2023-02-26T07:58:28.765Z,2.30
2023-02-26T08:03:53.318Z,2.80
2023-02-26T08:09:18.820Z,2.30
2023-02-26T08:14:43.140Z,3.80
2023-02-26T08:20:08.958Z,1.10
2023-02-26T08:25:33.886Z,1.50
2023-02-26T08:30:58.484Z,1.70
2023-02-26T08:36:24.001Z,1.30
2023-02-26T08:41:48.672Z,1.30
2023-02-26T08:47:15.154Z,1.30
2023-02-26T08:52:41.255Z,1.50
2023-02-26T08:58:06.176Z,1.50
2023-02-26T09:03:34.218Z,1.80
2023-02-26T09:08:58.897Z,1.40
2023-02-26T09:14:23.944Z,1.40
2023-02-26T09:19:48.080Z,1.40
2023-02-26T09:25:12.795Z,2.40
2023-02-26T09:30:36.944Z,3.00
2023-02-26T09:36:01.120Z,1.20
2023-02-26T09:41:32.788Z,1.20
2023-02-26T09:47:19.088Z,2.10
2023-02-26T09:52:53.999Z,2.80
2023-02-26T09:58:38.140Z,2.40
2023-02-26T10:04:14.595Z,1.40
2023-02-26T10:10:11.296Z,3.70
2023-02-26T10:15:43.614Z,2.00
2023-02-26T10:21:15.681Z,2.00
2023-02-26T10:26:50.281Z,1.80
2023-02-26T10:32:18.037Z,2.70
2023-02-26T10:37:52.650Z,2.10
2023-02-26T10:43:43.256Z,2.00
2023-02-26T10:49:33.120Z,2.40
2023-02-26T10:55:07.611Z,1.50
2023-02-26T11:00:43.357Z,1.90
2023-02-26T11:06:08.763Z,3.50
2023-02-26T11:11:43.990Z,2.00
2023-02-26T11:17:17.171Z,1.90
2023-02-26T11:22:57.933Z,1.80
2023-02-26T11:28:32.625Z,1.60
2023-02-26T11:34:05.728Z,2.70
2023-02-26T11:39:34.957Z,1.90
2023-02-26T11:44:59.517Z,4.40
2023-02-26T11:50:26.542Z,3.10
2023-02-26T11:56:00.603Z,3.90
2023-02-26T12:01:30.090Z,10.10
2023-02-26T12:06:55.743Z,3.80
2023-02-26T12:12:28.466Z,2.40
2023-02-26T12:18:18.028Z,2.40
2023-02-26T12:24:10.878Z,1.90
2023-02-26T12:30:01.716Z,2.50
2023-02-26T12:35:35.477Z,2.90
2023-02-26T12:40:59.849Z,2.40
2023-02-26T12:46:41.362Z,3.40
2023-02-26T12:52:26.989Z,1.50
2023-02-26T12:58:05.514Z,1.30
2023-02-26T13:03:55.358Z,1.50
2023-02-26T13:09:34.950Z,1.50
2023-02-26T13:15:14.616Z,1.40
2023-02-26T13:20:45.923Z,1.30
2023-02-26T13:26:16.465Z,3.00
2023-02-26T13:31:49.936Z,7.10
2023-02-26T13:43:31.557Z,1.80
2023-02-26T13:49:24.386Z,2.10
2023-02-26T14:00:29.008Z,1.00
2023-02-26T14:06:07.767Z,2.60
2023-02-26T14:11:46.894Z,3.30
2023-02-26T14:17:11.713Z,3.10
2023-02-26T14:22:43.581Z,5.10
2023-02-26T14:28:26.655Z,2.10
2023-02-26T14:34:10.334Z,3.50
2023-02-26T14:39:46.894Z,3.40
2023-02-26T14:45:14.645Z,1.90
2023-02-26T14:50:45.146Z,9.80
2023-02-26T14:56:32.052Z,4.40
2023-02-26T15:02:27.280Z,4.00
2023-02-26T15:07:59.068Z,3.50
2023-02-26T15:14:01.244Z,2.70
2023-02-26T15:19:33.647Z,1.50
2023-02-26T15:24:59.483Z,2.60
2023-02-26T15:30:25.021Z,2.20
2023-02-26T15:35:52.242Z,3.00
2023-02-26T15:41:18.562Z,1.80
2023-02-26T15:46:49.515Z,1.60
2023-02-26T15:52:18.237Z,2.70
2023-02-26T15:57:46.395Z,3.30
2023-02-26T16:03:11.038Z,3.50
2023-02-26T16:08:35.718Z,2.70
2023-02-26T16:14:01.320Z,2.30
2023-02-26T16:19:41.935Z,2.50
2023-02-26T16:25:08.792Z,2.10
2023-02-26T16:30:38.126Z,1.60
2023-02-26T16:36:19.102Z,1.90
2023-02-26T16:41:47.447Z,1.90
2023-02-26T16:47:11.517Z,3.00
2023-02-26T16:52:36.088Z,3.40
2023-02-26T16:58:06.262Z,3.60
2023-02-26T17:03:31.652Z,1.90
2023-02-26T17:08:59.208Z,3.10
2023-02-26T17:14:26.021Z,2.60
2023-02-26T17:19:51.112Z,1.70
2023-02-26T17:25:21.187Z,2.00
2023-02-26T17:30:46.712Z,2.30
2023-02-26T17:36:16.450Z,4.20
2023-02-26T17:41:43.899Z,5.20
2023-02-26T17:47:15.427Z,3.20
2023-02-26T17:52:39.520Z,3.50
2023-02-26T17:58:06.829Z,3.20
2023-02-26T18:03:31.401Z,3.80
2023-02-26T18:08:56.080Z,4.40
2023-02-26T18:14:19.860Z,4.50
2023-02-26T18:19:44.003Z,3.40
2023-02-26T18:25:09.829Z,3.80
2023-02-26T18:30:36.813Z,3.70
2023-02-26T18:36:01.534Z,3.50
2023-02-26T18:41:27.466Z,5.20
2023-02-26T18:46:52.590Z,4.10
2023-02-26T18:52:17.037Z,4.60
2023-02-26T18:57:42.703Z,3.70
2023-02-26T19:03:09.599Z,3.60
2023-02-26T19:08:35.093Z,3.20
2023-02-26T19:14:01.711Z,3.30
2023-02-26T19:19:25.953Z,2.60
2023-02-26T19:24:50.255Z,2.60
2023-02-26T19:30:14.254Z,2.50
2023-02-26T19:35:39.612Z,2.30
2023-02-26T19:41:04.722Z,3.10
2023-02-26T19:46:30.360Z,3.60
2023-02-26T19:51:55.372Z,3.70
2023-02-26T19:57:20.552Z,4.80
2023-02-26T20:02:46.362Z,4.50
2023-02-26T20:08:11.519Z,4.30
2023-02-26T20:13:37.578Z,4.10
2023-02-26T20:19:02.361Z,4.00
2023-02-26T20:24:26.813Z,4.50
2023-02-26T20:29:51.996Z,5.00
2023-02-26T20:35:16.476Z,4.80
2023-02-26T20:40:40.961Z,4.40
2023-02-26T20:46:06.269Z,4.70
2023-02-26T20:51:30.813Z,6.20
2023-02-26T20:56:55.178Z,4.70
2023-02-26T21:02:21.089Z,6.40
2023-02-26T21:07:45.242Z,8.10
2023-02-26T21:13:12.282Z,9.00
2023-02-26T21:18:36.898Z,7.80
2023-02-26T21:24:01.891Z,5.50
2023-02-26T21:29:27.069Z,6.10
2023-02-26T21:34:51.048Z,4.70
2023-02-26T21:40:15.972Z,5.40
2023-02-26T21:45:41.960Z,6.00
2023-02-26T21:51:07.061Z,4.50
2023-02-26T21:56:31.690Z,4.90
2023-02-26T22:01:56.657Z,4.10
2023-02-26T22:07:20.982Z,3.90
2023-02-26T22:12:45.203Z,3.20
2023-02-26T22:18:09.527Z,3.90
2023-02-26T22:23:34.473Z,5.80
2023-02-26T22:29:01.021Z,8.30
2023-02-26T22:34:25.475Z,6.40
2023-02-26T22:39:49.962Z,9.10
2023-02-26T22:45:17.431Z,6.10
2023-02-26T22:50:42.801Z,4.10
2023-02-26T22:56:07.506Z,4.10
2023-02-26T23:01:31.855Z,6.00
2023-02-26T23:06:56.471Z,4.30
2023-02-26T23:12:20.614Z,4.50
2023-02-26T23:17:45.060Z,4.20
2023-02-26T23:23:09.637Z,4.40
2023-02-26T23:28:35.117Z,3.90
2023-02-26T23:34:00.595Z,5.20
2023-02-26T23:39:26.196Z,4.50
2023-02-26T23:44:50.345Z,4.60
2023-02-26T23:50:14.869Z,5.50
2023-02-26T23:55:39.178Z,4.60
